Time;durP1;ratioP1;P1;durP2;ratioP2;P2;SDS_P1;SDS_P2;PMS_P1;PMS_P2;Temp;Humidity;BMP_temperature;BMP_pressure;BME280_temperature;BME280_humidity;BME280_pressure;Samples;Min_cycle;Max_cycle;Signal;HPM_P1;HPM_P2
2023/04/17 05:07:15;;;;;;;;;;;;;;;8.96;86.05;98496.78;6092319;23;19917;-60
2023/04/17 05:09:41;;;;;;;;;;;;;;;8.98;86.52;98497.53;4961584;28;19934;-64
2023/04/17 05:12:06;;;;;;;;;;;;;;;8.96;86.06;98494.16;4966475;28;19969;-61
2023/04/17 05:14:32;;;;;;;;;;;;;;;8.97;85.89;98501.06;4971912;28;19914;-62
2023/04/17 05:16:57;;;;;;;;;;;;;;;8.99;85.77;98504.47;4968363;28;19972;-62
2023/04/17 05:19:22;;;;;;;;;;;;;;;8.98;86.63;98498.38;4951891;28;19969;-61
2023/04/17 05:21:47;;;;;;;;;;;;;;;9.04;86.07;98505.03;4949445;29;19923;-62
2023/04/17 05:24:13;;;;;;;;;;;;;;;8.94;86.00;98499.47;4950278;28;19925;-62
2023/04/17 05:26:38;;;;;;;;;;;;;;;8.93;86.54;98496.94;4958008;28;19918;-61
2023/04/17 05:29:03;;;;;;;;;;;;;;;8.95;86.08;98508.19;4951081;28;19925;-62
2023/04/17 05:31:28;;;;;;;;;;;;;;;8.96;86.75;98509.88;4948669;29;19918;-62
2023/04/17 05:33:54;;;;;;;;;;;;;;;8.93;86.45;98513.50;4954222;29;19934;-61
2023/04/17 05:36:19;;;;;;;;;;;;;;;8.95;86.67;98513.41;4946499;29;20398;-62
2023/04/17 05:38:44;;;;;;;;;;;;;;;9.05;87.27;98511.97;4952711;28;19941;-61
2023/04/17 05:41:09;;;;;;;;;;;;;;;9.03;86.09;98511.19;4956812;29;19915;-61
2023/04/17 05:43:35;;;;;;;;;;;;;;;9.11;86.43;98518.59;4952007;29;20380;-62
2023/04/17 05:46:00;;;;;;;;;;;;;;;9.16;86.17;98516.56;4953038;29;20450;-63
2023/04/17 05:48:25;;;;;;;;;;;;;;;9.21;85.89;98515.34;4951088;28;19938;-63
2023/04/17 05:50:50;;;;;;;;;;;;;;;9.34;87.01;98522.50;4954721;28;20632;-61
2023/04/17 05:53:16;;;;;;;;;;;;;;;9.35;85.11;98522.41;4955579;29;19915;-63
2023/04/17 05:55:41;;;;;;;;;;;;;;;9.44;84.37;98515.81;4953071;29;19925;-63
2023/04/17 05:58:06;;;;;;;;;;;;;;;9.50;84.89;98515.44;4951708;28;19931;-63
2023/04/17 06:00:31;;;;;;;;;;;;;;;9.61;85.41;98518.25;4953779;29;21977;-63
2023/04/17 06:02:57;;;;;;;;;;;;;;;9.61;83.19;98513.03;4954509;29;19926;-62
2023/04/17 06:05:22;;;;;;;;;;;;;;;9.62;83.69;98519.94;4952031;29;19919;-63
2023/04/17 06:07:47;;;;;;;;;;;;;;;9.67;83.78;98522.28;4954518;28;20014;-63
2023/04/17 06:10:13;;;;;;;;;;;;;;;9.64;82.57;98517.25;4954684;29;20009;-62
2023/04/17 06:12:38;;;;;;;;;;;;;;;9.72;83.22;98517.63;4956505;28;19930;-61
2023/04/17 06:15:03;;;;;;;;;;;;;;;9.83;83.85;98525.66;4950416;29;19919;-62
2023/04/17 06:17:29;;;;;;;;;;;;;;;9.91;82.92;98531.31;4963432;28;20001;-62
2023/04/17 06:19:54;;;;;;;;;;;;;;;10.03;83.26;98534.94;4965436;28;19989;-63
2023/04/17 06:22:19;;;;;;;;;;;;;;;10.11;82.21;98532.69;4954191;29;19961;-63
2023/04/17 06:24:45;;;;;;;;;;;;;;;10.14;80.77;98527.25;4947080;29;20273;-62
2023/04/17 06:27:10;;;;;;;;;;;;;;;10.22;80.74;98532.03;4953487;28;20435;-62
2023/04/17 06:29:35;;;;;;;;;;;;;;;10.28;80.77;98533.47;4952577;29;20051;-62
2023/04/17 06:32:00;;;;;;;;;;;;;;;10.32;80.16;98535.78;4955525;29;19919;-63
2023/04/17 06:34:26;;;;;;;;;;;;;;;10.40;79.89;98535.31;4951440;28;19941;-63
2023/04/17 06:36:52;;;;;;;;;;;;;;;10.43;80.04;98535.13;4954800;29;19918;-63
2023/04/17 06:39:17;;;;;;;;;;;;;;;10.50;79.63;98539.06;4953459;28;20400;-64
2023/04/17 06:41:42;;;;;;;;;;;;;;;10.57;78.89;98539.50;4951554;28;19946;-63
2023/04/17 06:44:08;;;;;;;;;;;;;;;10.59;78.50;98538.47;4955661;29;19960;-60
2023/04/17 06:46:33;;;;;;;;;;;;;;;10.64;78.15;98541.66;4954270;28;19957;-63
2023/04/17 06:48:58;;;;;;;;;;;;;;;10.62;78.23;98543.50;4955564;28;19918;-64
2023/04/17 06:51:26;;;;;;;;;;;;;;;10.62;77.97;98534.81;4953171;29;19922;-62
2023/04/17 06:53:51;;;;;;;;;;;;;;;10.57;78.00;98540.34;4968411;28;19918;-62
2023/04/17 06:56:17;;;;;;;;;;;;;;;10.48;77.50;98543.53;4954561;29;19914;-62
2023/04/17 06:58:45;;;;;;;;;;;;;;;10.45;78.05;98548.97;4954766;28;19941;-62
2023/04/17 07:01:10;;;;;;;;;;;;;;;10.39;78.13;98546.72;4953753;28;19914;-62
2023/04/17 07:03:37;;;;;;;;;;;;;;;10.34;77.92;98549.66;4953101;29;20005;-61
2023/04/17 07:06:02;;;;;;;;;;;;;;;10.40;78.20;98545.81;4954222;29;19921;-62
2023/04/17 07:08:27;;;;;;;;;;;;;;;10.41;78.80;98545.72;4952965;28;19919;-63
2023/04/17 07:10:53;;;;;;;;;;;;;;;10.45;78.23;98552.44;4954698;29;19919;-64
2023/04/17 07:13:18;;;;;;;;;;;;;;;10.50;77.43;98554.78;4953770;28;19934;-65
2023/04/17 07:15:44;;;;;;;;;;;;;;;10.57;78.03;98548.22;4954162;29;19919;-64
2023/04/17 07:18:09;;;;;;;;;;;;;;;10.70;77.16;98553.50;4952988;28;19926;-64
2023/04/17 07:20:34;;;;;;;;;;;;;;;10.76;76.70;98554.91;4952560;28;19919;-64
2023/04/17 07:23:00;;;;;;;;;;;;;;;10.81;76.72;98552.84;4953920;28;19937;-64
2023/04/17 07:25:25;;;;;;;;;;;;;;;10.80;75.60;98552.00;4954064;29;20384;-64
2023/04/17 07:27:51;;;;;;;;;;;;;;;10.82;75.79;98557.16;4969689;28;19922;-64
2023/04/17 07:30:17;;;;;;;;;;;;;;;10.76;75.58;98554.91;4966194;28;20005;-64
2023/04/17 07:32:42;;;;;;;;;;;;;;;10.79;75.50;98555.56;4952348;29;20005;-64
2023/04/17 07:35:07;;;;;;;;;;;;;;;10.73;76.32;98558.56;4953999;29;20014;-63
2023/04/17 07:37:33;;;;;;;;;;;;;;;10.77;76.48;98561.84;4954626;28;19966;-63
2023/04/17 07:39:58;;;;;;;;;;;;;;;10.80;75.85;98556.41;4954235;28;20344;-64
2023/04/17 07:42:23;;;;;;;;;;;;;;;10.84;75.81;98557.88;4953498;29;20300;-63
2023/04/17 07:44:48;;;;;;;;;;;;;;;10.98;75.83;98557.88;4953359;29;20046;-64
2023/04/17 07:47:14;;;;;;;;;;;;;;;11.12;75.71;98563.06;4953095;28;19926;-64
2023/04/17 07:49:39;;;;;;;;;;;;;;;11.27;74.59;98563.81;4953392;28;20288;-63
2023/04/17 07:52:05;;;;;;;;;;;;;;;11.41;74.07;98561.13;4951947;28;20295;-63
2023/04/17 07:54:30;;;;;;;;;;;;;;;11.57;73.75;98565.38;4952284;28;19914;-64
2023/04/17 07:56:57;;;;;;;;;;;;;;;11.69;73.17;98561.91;4951889;28;19918;-64
2023/04/17 07:59:22;;;;;;;;;;;;;;;11.77;71.60;98564.03;4951196;28;19926;-64
2023/04/17 08:01:48;;;;;;;;;;;;;;;11.82;71.27;98569.81;4953060;29;19923;-64
2023/04/17 08:04:13;;;;;;;;;;;;;;;11.80;71.44;98572.56;4953327;28;20005;-62
2023/04/17 08:06:39;;;;;;;;;;;;;;;11.77;70.98;98569.28;4952565;29;20008;-63
2023/04/17 08:09:04;;;;;;;;;;;;;;;11.80;71.17;98582.19;4969129;28;20061;-63
2023/04/17 08:11:29;;;;;;;;;;;;;;;11.91;71.13;98579.75;4951701;29;19919;-63
2023/04/17 08:13:55;;;;;;;;;;;;;;;12.00;70.77;98573.84;4951389;28;20009;-63
2023/04/17 08:16:20;;;;;;;;;;;;;;;12.03;69.75;98572.78;4951032;29;19960;-63
2023/04/17 08:18:45;;;;;;;;;;;;;;;12.05;69.28;98573.53;4952913;28;19930;-64
2023/04/17 08:21:11;;;;;;;;;;;;;;;12.14;70.13;98577.31;4952965;29;19925;-64
2023/04/17 08:23:36;;;;;;;;;;;;;;;12.30;70.08;98577.94;4952004;28;19918;-63
2023/04/17 08:26:01;;;;;;;;;;;;;;;12.44;69.46;98580.44;4953294;29;19918;-64
2023/04/17 08:28:27;;;;;;;;;;;;;;;12.47;68.33;98580.22;4953722;29;19915;-63
2023/04/17 08:30:52;;;;;;;;;;;;;;;12.42;68.75;98590.25;4943649;28;19925;-63
2023/04/17 08:33:18;;;;;;;;;;;;;;;12.45;68.58;98591.78;4953172;29;20111;-63
2023/04/17 08:35:43;;;;;;;;;;;;;;;12.40;67.93;98584.25;4953008;29;19933;-63
2023/04/17 08:38:12;;;;;;;;;;;;;;;12.53;68.11;98581.59;4952456;28;19922;-63
2023/04/17 08:40:40;;;;;;;;;;;;;;;12.44;67.46;98585.69;4953038;28;19965;-63
2023/04/17 08:43:06;;;;;;;;;;;;;;;12.48;68.11;98581.91;4966694;28;20009;-63
2023/04/17 08:45:31;;;;;;;;;;;;;;;12.51;68.13;98581.69;4951410;28;20069;-63
2023/04/17 08:47:56;;;;;;;;;;;;;;;12.54;67.06;98586.75;4953628;28;19942;-63
2023/04/17 08:50:22;;;;;;;;;;;;;;;12.63;66.72;98580.00;4951975;29;19980;-63
2023/04/17 08:52:47;;;;;;;;;;;;;;;12.65;66.54;98582.50;4952045;28;19918;-65
2023/04/17 08:55:14;;;;;;;;;;;;;;;12.49;66.40;98573.09;4949641;29;19914;-63
2023/04/17 08:57:59;;;;;;;;;;;;;;;12.46;66.76;98578.56;4933490;28;19964;-65
2023/04/17 09:00:27;;;;;;;;;;;;;;;12.50;66.50;98584.44;4956831;28;19925;-64
2023/04/17 09:02:53;;;;;;;;;;;;;;;12.46;66.23;98583.81;4957592;28;19915;-66
2023/04/17 09:05:20;;;;;;;;;;;;;;;12.58;65.92;98588.19;4956810;28;19976;-65
2023/04/17 09:07:45;;;;;;;;;;;;;;;12.71;66.62;98585.53;4956014;28;20426;-65
2023/04/17 09:10:10;;;;;;;;;;;;;;;12.97;65.95;98586.31;4954721;29;19918;-64
2023/04/17 09:12:40;;;;;;;;;;;;;;;13.22;63.91;98587.16;4956618;29;19965;-66
2023/04/17 09:15:15;;;;;;;;;;;;;;;13.50;63.70;98586.84;4956124;28;19922;-66
2023/04/17 09:17:40;;;;;;;;;;;;;;;13.77;62.87;98591.00;4955807;28;20339;-63
2023/04/17 09:20:06;;;;;;;;;;;;;;;13.99;62.64;98583.13;4956517;29;20396;-62
2023/04/17 09:22:31;;;;;;;;;;;;;;;14.18;61.44;98577.28;4956206;28;20373;-61
2023/04/17 09:24:56;;;;;;;;;;;;;;;14.34;60.27;98582.19;4957212;29;20283;-62
2023/04/17 09:27:22;;;;;;;;;;;;;;;14.20;58.85;98579.78;4954643;29;19961;-64
2023/04/17 09:29:57;;;;;;;;;;;;;;;14.31;58.54;98582.44;4971300;28;19914;-67
2023/04/17 09:32:24;;;;;;;;;;;;;;;14.41;58.93;98582.56;4954719;29;19958;-63
2023/04/17 09:34:50;;;;;;;;;;;;;;;14.58;58.96;98583.91;4956179;28;19929;-63
2023/04/17 09:37:15;;;;;;;;;;;;;;;14.70;58.31;98586.41;4953339;28;19918;-61
2023/04/17 09:39:53;;;;;;;;;;;;;;;14.84;56.55;98592.41;4953633;29;19966;-62
2023/04/17 09:42:18;;;;;;;;;;;;;;;14.90;56.37;98582.19;4955107;29;19961;-62
2023/04/17 09:44:43;;;;;;;;;;;;;;;15.01;55.75;98585.78;4956667;29;19981;-64
2023/04/17 09:47:09;;;;;;;;;;;;;;;15.03;55.43;98583.81;4954169;29;19950;-62
2023/04/17 09:49:37;;;;;;;;;;;;;;;15.17;55.38;98580.91;4953999;29;19926;-63
2023/04/17 09:52:02;;;;;;;;;;;;;;;15.38;55.52;98581.81;4955062;29;19918;-63
2023/04/17 09:54:30;;;;;;;;;;;;;;;15.57;55.04;98588.22;4954862;29;19926;-63
2023/04/17 09:56:56;;;;;;;;;;;;;;;15.75;53.69;98586.69;4954462;29;19919;-64
2023/04/17 09:59:24;;;;;;;;;;;;;;;15.47;52.84;98584.66;4955131;28;20388;-65
2023/04/17 10:01:50;;;;;;;;;;;;;;;15.32;53.43;98584.94;4954474;29;19959;-67
2023/04/17 10:04:15;;;;;;;;;;;;;;;15.54;54.16;98585.81;4953298;29;20409;-64
2023/04/17 10:06:40;;;;;;;;;;;;;;;15.70;54.20;98588.06;4962452;28;20377;-66
2023/04/17 10:09:06;;;;;;;;;;;;;;;15.42;52.95;98580.59;4954925;28;20408;-65
2023/04/17 10:11:38;;;;;;;;;;;;;;;15.32;53.51;98582.31;4953336;28;19953;-65
2023/04/17 10:14:10;;;;;;;;;;;;;;;15.62;53.73;98588.66;4949833;29;19918;-65
2023/04/17 10:16:35;;;;;;;;;;;;;;;15.69;53.71;98579.31;4953984;29;19930;-63
2023/04/17 10:19:19;;;;;;;;;;;;;;;15.75;53.10;98575.28;4953493;28;19922;-65
2023/04/17 10:21:49;;;;;;;;;;;;;;;15.82;52.95;98574.63;4956114;29;19914;-63
2023/04/17 10:24:24;;;;;;;;;;;;;;;16.09;52.97;98576.75;4954419;29;19918;-63
2023/04/17 10:26:49;;;;;;;;;;;;;;;16.36;52.07;98578.84;4956266;28;19918;-63
2023/04/17 10:29:14;;;;;;;;;;;;;;;16.50;50.61;98577.66;4953457;28;19925;-63
2023/04/17 10:31:58;;;;;;;;;;;;;;;16.64;50.40;98570.31;4955920;29;19915;-63
2023/04/17 10:34:33;;;;;;;;;;;;;;;16.34;49.83;98572.00;4953101;29;19919;-63
2023/04/17 10:37:00;;;;;;;;;;;;;;;16.18;50.84;98567.19;4954887;29;19964;-63
2023/04/17 10:39:25;;;;;;;;;;;;;;;15.83;51.08;98572.84;4954431;28;20360;-62
2023/04/17 10:42:03;;;;;;;;;;;;;;;16.08;51.49;98566.31;4954644;29;20005;-63
2023/04/17 10:44:34;;;;;;;;;;;;;;;16.23;50.94;98564.97;4955338;28;19926;-63
2023/04/17 10:47:06;;;;;;;;;;;;;;;16.53;49.71;98555.38;4954478;28;19969;-64
2023/04/17 10:49:49;;;;;;;;;;;;;;;16.48;48.57;98560.22;4954496;28;19926;-63
2023/04/17 10:52:33;;;;;;;;;;;;;;;16.15;49.70;98556.88;4950941;29;19918;-64
2023/04/17 10:55:19;;;;;;;;;;;;;;;16.01;49.56;98563.34;4953584;29;19919;-63
2023/04/17 10:57:56;;;;;;;;;;;;;;;15.95;51.04;98558.56;4953775;28;20294;-65
2023/04/17 11:00:51;;;;;;;;;;;;;;;16.08;51.04;98558.38;4953214;29;19925;-63
2023/04/17 11:03:16;;;;;;;;;;;;;;;16.29;51.40;98555.69;4870855;29;19955;-61
2023/04/17 11:05:45;;;;;;;;;;;;;;;16.00;49.78;98553.75;4877306;29;20007;-62
2023/04/17 11:08:10;;;;;;;;;;;;;;;15.89;50.07;98551.16;4860895;29;19919;-64
2023/04/17 11:10:36;;;;;;;;;;;;;;;15.74;50.46;98557.75;4875543;29;19959;-63
2023/04/17 11:13:01;;;;;;;;;;;;;;;15.70;51.46;98551.88;4876225;29;19920;-64
2023/04/17 11:15:27;;;;;;;;;;;;;;;15.56;51.56;98550.38;4876253;29;19926;-64
2023/04/17 11:17:52;;;;;;;;;;;;;;;15.68;51.92;98547.69;4860516;29;19971;-64
2023/04/17 11:20:22;;;;;;;;;;;;;;;15.53;51.42;98541.84;4877677;29;19916;-64
2023/04/17 11:22:47;;;;;;;;;;;;;;;15.27;52.11;98544.00;4859525;29;19924;-64
2023/04/17 11:25:19;;;;;;;;;;;;;;;15.21;51.74;98550.66;4875467;29;19920;-64
2023/04/17 11:27:45;;;;;;;;;;;;;;;15.15;52.85;98543.22;4875073;29;19926;-64
2023/04/17 11:30:10;;;;;;;;;;;;;;;15.19;53.50;98548.13;4876457;29;19916;-63
2023/04/17 11:32:35;;;;;;;;;;;;;;;15.29;53.14;98542.91;4873665;29;20013;-65
2023/04/17 11:35:02;;;;;;;;;;;;;;;15.41;52.52;98541.88;4877084;29;19916;-65
2023/04/17 11:37:27;;;;;;;;;;;;;;;15.38;52.03;98542.16;4859413;29;20306;-65
2023/04/17 11:39:52;;;;;;;;;;;;;;;15.27;51.66;98550.13;4922737;29;20422;-64
2023/04/17 11:42:24;;;;;;;;;;;;;;;15.10;51.96;98548.03;4951521;28;20015;-64
2023/04/17 11:44:49;;;;;;;;;;;;;;;15.19;52.64;98547.28;4952633;29;19930;-64
2023/04/17 11:47:15;;;;;;;;;;;;;;;15.37;52.86;98539.63;4954112;28;19922;-64
2023/04/17 11:49:40;;;;;;;;;;;;;;;15.57;52.21;98543.25;4954509;28;20455;-64
2023/04/17 11:52:05;;;;;;;;;;;;;;;15.50;50.36;98539.47;4953374;29;19918;-63
2023/04/17 11:54:36;;;;;;;;;;;;;;;15.36;51.41;98543.25;4954739;29;19922;-64
2023/04/17 11:57:01;;;;;;;;;;;;;;;15.14;51.26;98544.16;4953022;28;19918;-65
2023/04/17 11:59:32;;;;;;;;;;;;;;;15.23;52.10;98543.41;4952968;29;19922;-64
2023/04/17 12:01:59;;;;;;;;;;;;;;;15.30;52.17;98544.59;4952143;29;19918;-64
2023/04/17 12:04:24;;;;;;;;;;;;;;;15.19;51.59;98539.34;4954457;28;19914;-64
2023/04/17 12:06:50;;;;;;;;;;;;;;;14.79;52.07;98533.81;4952764;28;19925;-65
2023/04/17 12:09:19;;;;;;;;;;;;;;;14.75;52.98;98545.59;4954009;29;20384;-64
2023/04/17 12:11:45;;;;;;;;;;;;;;;14.76;53.27;98540.19;4951137;29;20440;-64
2023/04/17 12:14:10;;;;;;;;;;;;;;;14.81;52.65;98538.03;4952940;29;19915;-66
2023/04/17 12:16:36;;;;;;;;;;;;;;;15.06;52.61;98536.88;4953211;28;19946;-66
2023/04/17 12:19:01;;;;;;;;;;;;;;;15.18;52.48;98540.31;4951963;29;19930;-66
2023/04/17 12:21:26;;;;;;;;;;;;;;;15.50;51.10;98535.00;4953488;29;20013;-66
2023/04/17 12:23:51;;;;;;;;;;;;;;;15.70;50.19;98527.25;4953969;29;19997;-64
2023/04/17 12:26:17;;;;;;;;;;;;;;;15.79;50.29;98535.22;4953014;29;20017;-64
2023/04/17 12:28:42;;;;;;;;;;;;;;;15.87;49.90;98527.50;4952742;28;20033;-64
2023/04/17 12:31:07;;;;;;;;;;;;;;;15.98;49.16;98533.66;4951702;29;19919;-64
2023/04/17 12:33:32;;;;;;;;;;;;;;;15.77;49.26;98529.25;4952259;28;19974;-64
2023/04/17 12:35:59;;;;;;;;;;;;;;;15.62;49.63;98527.84;4968663;28;19938;-65
2023/04/17 12:38:24;;;;;;;;;;;;;;;15.23;49.96;98537.28;4951569;29;20392;-65
2023/04/17 12:40:49;;;;;;;;;;;;;;;14.87;52.11;98532.25;4952709;29;20434;-66
2023/04/17 12:43:14;;;;;;;;;;;;;;;14.66;52.62;98539.28;4952058;28;20627;-65
2023/04/17 12:45:40;;;;;;;;;;;;;;;14.45;53.71;98536.47;4951112;28;19918;-64
2023/04/17 12:48:06;;;;;;;;;;;;;;;14.45;54.28;98536.47;4952599;28;20389;-63
2023/04/17 12:50:31;;;;;;;;;;;;;;;14.58;53.43;98541.66;4953895;28;20009;-62
2023/04/17 12:52:56;;;;;;;;;;;;;;;14.61;52.12;98528.22;4949180;29;19930;-63
2023/04/17 12:55:22;;;;;;;;;;;;;;;14.66;52.66;98534.81;4950799;29;20281;-64
2023/04/17 12:57:47;;;;;;;;;;;;;;;14.52;52.64;98532.47;4951595;28;20368;-64
2023/04/17 13:00:12;;;;;;;;;;;;;;;14.59;52.30;98522.22;4951346;29;19966;-66
2023/04/17 13:02:38;;;;;;;;;;;;;;;14.49;52.17;98533.50;4953700;28;19918;-63
2023/04/17 13:05:03;;;;;;;;;;;;;;;14.57;51.75;98530.28;4952776;29;19918;-65
2023/04/17 13:07:29;;;;;;;;;;;;;;;14.32;53.19;98531.34;4953294;28;19921;-65
2023/04/17 13:09:54;;;;;;;;;;;;;;;14.27;53.37;98533.50;4951526;29;19926;-65
2023/04/17 13:12:19;;;;;;;;;;;;;;;14.11;53.57;98527.72;4952488;29;20021;-65
2023/04/17 13:14:45;;;;;;;;;;;;;;;14.11;54.26;98535.66;4951242;29;20396;-63
2023/04/17 13:17:10;;;;;;;;;;;;;;;14.11;54.15;98533.88;4951594;28;20368;-64
2023/04/17 13:19:35;;;;;;;;;;;;;;;14.10;53.52;98533.97;4952101;29;19929;-65
2023/04/17 13:22:00;;;;;;;;;;;;;;;14.30;53.05;98527.97;4953499;29;19914;-64
2023/04/17 13:24:26;;;;;;;;;;;;;;;14.46;52.91;98533.75;4952320;29;19924;-65
2023/04/17 13:26:51;;;;;;;;;;;;;;;14.76;51.78;98529.63;4951317;29;19918;-63
2023/04/17 13:29:16;;;;;;;;;;;;;;;14.82;51.89;98531.78;4953261;29;19915;-65
2023/04/17 13:31:41;;;;;;;;;;;;;;;14.69;51.31;98528.44;4953389;29;20443;-64
2023/04/17 13:34:06;;;;;;;;;;;;;;;14.87;51.67;98524.34;4952666;29;20380;-64
2023/04/17 13:36:32;;;;;;;;;;;;;;;15.36;50.88;98525.59;4952534;29;20392;-65
2023/04/17 13:38:57;;;;;;;;;;;;;;;15.89;49.57;98514.94;4945850;29;19938;-65
2023/04/17 13:41:23;;;;;;;;;;;;;;;15.84;50.13;98522.47;4948139;29;19942;-66
2023/04/17 13:43:48;;;;;;;;;;;;;;;15.73;50.21;98509.31;4951878;29;19957;-63
2023/04/17 13:46:15;;;;;;;;;;;;;;;15.61;49.91;98520.88;4954402;28;20388;-64
2023/04/17 13:48:43;;;;;;;;;;;;;;;15.40;49.37;98518.25;4954803;28;19980;-64
2023/04/17 13:51:08;;;;;;;;;;;;;;;15.37;49.86;98519.31;4954029;29;19954;-65
2023/04/17 13:53:33;;;;;;;;;;;;;;;15.29;50.09;98521.78;4955722;29;19964;-66
2023/04/17 13:55:59;;;;;;;;;;;;;;;15.27;48.93;98518.41;4971634;28;19953;-65
2023/04/17 13:58:24;;;;;;;;;;;;;;;15.30;49.06;98517.31;4954656;28;19922;-65
2023/04/17 14:00:50;;;;;;;;;;;;;;;15.54;48.55;98517.09;4955314;29;19949;-64
2023/04/17 14:03:15;;;;;;;;;;;;;;;15.53;48.41;98515.41;4955987;28;20013;-63
2023/04/17 14:05:40;;;;;;;;;;;;;;;15.35;49.58;98516.00;4955639;29;20446;-64
2023/04/17 14:08:06;;;;;;;;;;;;;;;15.56;49.57;98512.50;4953301;29;20373;-64
2023/04/17 14:10:31;;;;;;;;;;;;;;;17.27;50.76;98513.41;4952969;29;20336;-64
2023/04/17 14:12:56;;;;;;;;;;;;;;;18.38;48.23;98514.56;4955461;29;19925;-64
2023/04/17 14:15:21;;;;;;;;;;;;;;;18.87;45.48;98498.38;4954937;29;19919;-65
2023/04/17 14:17:47;;;;;;;;;;;;;;;19.14;44.71;98506.28;4954966;29;19926;-66
2023/04/17 14:20:13;;;;;;;;;;;;;;;20.44;41.70;98497.53;4955278;29;19922;-66
2023/04/17 14:22:39;;;;;;;;;;;;;;;20.22;41.30;98490.91;4955052;29;19921;-65
2023/04/17 14:25:04;;;;;;;;;;;;;;;20.81;39.85;98491.81;4953302;29;20300;-66
2023/04/17 14:27:30;;;;;;;;;;;;;;;21.86;35.35;98492.03;4953458;28;19937;-65
2023/04/17 14:29:55;;;;;;;;;;;;;;;21.10;38.61;98494.03;4955886;29;20391;-63
2023/04/17 14:32:20;;;;;;;;;;;;;;;20.11;38.17;98501.84;4949849;29;19933;-63
2023/04/17 14:34:45;;;;;;;;;;;;;;;19.58;41.45;98493.03;4954049;29;19922;-65
2023/04/17 14:37:10;;;;;;;;;;;;;;;19.74;41.16;98494.13;4951809;28;19922;-65
2023/04/17 14:39:36;;;;;;;;;;;;;;;19.66;41.62;98495.75;4955589;29;20009;-65
2023/04/17 14:42:01;;;;;;;;;;;;;;;20.77;37.26;98510.97;4953688;29;20006;-65
2023/04/17 14:44:26;;;;;;;;;;;;;;;22.50;34.94;98495.56;4954796;29;20241;-65
2023/04/17 14:46:51;;;;;;;;;;;;;;;21.81;36.07;98497.03;4951895;29;20001;-65
2023/04/17 14:49:17;;;;;;;;;;;;;;;21.17;38.99;98486.22;4951127;28;20021;-64
2023/04/17 14:51:42;;;;;;;;;;;;;;;20.68;40.59;98487.94;4954365;29;20013;-66
2023/04/17 14:54:07;;;;;;;;;;;;;;;20.12;38.16;98493.69;4955528;28;20372;-64
2023/04/17 14:56:32;;;;;;;;;;;;;;;20.42;37.55;98491.50;4953657;28;20296;-64
2023/04/17 14:58:58;;;;;;;;;;;;;;;21.85;34.85;98493.06;4950619;28;19973;-64
2023/04/17 15:01:23;;;;;;;;;;;;;;;22.01;34.33;98487.66;4955135;29;20400;-64
2023/04/17 15:03:48;;;;;;;;;;;;;;;19.98;36.98;98493.47;4953828;29;19918;-64
2023/04/17 15:06:14;;;;;;;;;;;;;;;19.37;39.33;98495.16;4952695;29;19989;-65
2023/04/17 15:08:40;;;;;;;;;;;;;;;19.17;39.92;98495.34;4951014;28;19918;-64
2023/04/17 15:11:05;;;;;;;;;;;;;;;19.10;39.64;98510.22;4967873;28;19925;-64
2023/04/17 15:13:30;;;;;;;;;;;;;;;18.39;41.40;98504.78;4953632;28;20036;-64
2023/04/17 15:15:56;;;;;;;;;;;;;;;17.74;42.45;98505.53;4954065;29;20317;-65
2023/04/17 15:18:21;;;;;;;;;;;;;;;17.38;43.72;98506.25;4950110;28;19961;-64
2023/04/17 15:20:46;;;;;;;;;;;;;;;17.43;44.04;98509.34;4955182;29;20343;-65
2023/04/17 15:23:11;;;;;;;;;;;;;;;18.10;42.77;98500.44;4951967;28;19918;-64
2023/04/17 15:25:37;;;;;;;;;;;;;;;18.27;41.16;98499.66;4952726;29;19918;-65
2023/04/17 15:28:02;;;;;;;;;;;;;;;16.80;44.78;98502.63;4950147;28;20009;-64
2023/04/17 15:30:27;;;;;;;;;;;;;;;15.85;46.27;98505.59;4951992;29;19922;-63
2023/04/17 15:32:52;;;;;;;;;;;;;;;17.11;44.08;98507.00;4952868;29;20366;-63
2023/04/17 15:35:18;;;;;;;;;;;;;;;18.97;40.34;98507.13;4951908;29;19958;-62
2023/04/17 15:37:43;;;;;;;;;;;;;;;19.29;39.72;98503.06;4951457;28;19926;-64
2023/04/17 15:40:08;;;;;;;;;;;;;;;19.17;40.30;98513.13;4954496;29;20340;-66
2023/04/17 15:42:34;;;;;;;;;;;;;;;19.60;39.90;98501.66;4950734;29;20301;-64
2023/04/17 15:44:59;;;;;;;;;;;;;;;21.34;36.74;98497.75;4953437;29;19965;-65
2023/04/17 15:47:25;;;;;;;;;;;;;;;19.50;39.13;98500.91;4952226;29;19976;-65
2023/04/17 15:49:50;;;;;;;;;;;;;;;19.54;39.56;98507.59;4952236;29;20029;-65
2023/04/17 15:52:15;;;;;;;;;;;;;;;21.27;37.33;98507.41;4950398;29;20009;-65
2023/04/17 15:54:40;;;;;;;;;;;;;;;20.49;37.66;98502.34;4954490;29;20404;-65
2023/04/17 15:57:05;;;;;;;;;;;;;;;19.82;39.44;98504.81;4952323;28;19930;-65
2023/04/17 15:59:32;;;;;;;;;;;;;;;19.95;39.45;98521.22;4954025;29;19919;-64
2023/04/17 16:01:57;;;;;;;;;;;;;;;18.86;41.30;98516.13;4964774;28;20348;-64
2023/04/17 16:04:22;;;;;;;;;;;;;;;18.01;42.41;98519.88;4954125;29;19953;-65
2023/04/17 16:06:47;;;;;;;;;;;;;;;17.69;43.63;98522.88;4951665;28;19927;-66
2023/04/17 16:09:16;;;;;;;;;;;;;;;17.35;44.16;98527.78;4951426;28;20024;-65
2023/04/17 16:11:41;;;;;;;;;;;;;;;17.25;44.96;98525.97;4953326;28;19918;-65
2023/04/17 16:14:07;;;;;;;;;;;;;;;17.35;44.65;98530.44;4951989;29;20261;-65
2023/04/17 16:16:32;;;;;;;;;;;;;;;18.00;43.63;98518.22;4951118;29;19926;-62
2023/04/17 16:18:57;;;;;;;;;;;;;;;18.74;42.13;98534.09;4950167;28;20092;-62
2023/04/17 16:21:22;;;;;;;;;;;;;;;18.65;42.00;98527.00;4952710;29;19918;-63
2023/04/17 16:23:48;;;;;;;;;;;;;;;17.74;43.13;98532.03;4950999;29;20033;-63
2023/04/17 16:26:14;;;;;;;;;;;;;;;17.63;43.74;98534.88;4953453;28;20046;-63
2023/04/17 16:28:39;;;;;;;;;;;;;;;17.25;44.33;98533.06;4950486;28;20368;-64
2023/04/17 16:31:04;;;;;;;;;;;;;;;16.81;45.48;98533.44;4952034;29;19954;-64
2023/04/17 16:33:29;;;;;;;;;;;;;;;16.33;46.46;98534.09;4950989;29;19969;-63
2023/04/17 16:35:55;;;;;;;;;;;;;;;16.70;45.99;98533.53;4953836;29;19949;-65
2023/04/17 16:38:20;;;;;;;;;;;;;;;16.22;47.49;98536.00;4951209;28;19933;-64
2023/04/17 16:40:45;;;;;;;;;;;;;;;15.72;48.62;98534.06;4951565;29;19972;-63
2023/04/17 16:43:10;;;;;;;;;;;;;;;15.79;48.80;98529.94;4952507;29;20392;-63
2023/04/17 16:45:36;;;;;;;;;;;;;;;15.81;48.33;98528.00;4951250;29;20309;-63
2023/04/17 16:48:01;;;;;;;;;;;;;;;15.62;48.12;98539.28;4950499;29;20017;-66
2023/04/17 16:50:26;;;;;;;;;;;;;;;15.40;48.85;98534.09;4951446;29;20288;-66
2023/04/17 16:52:52;;;;;;;;;;;;;;;15.06;49.54;98536.88;4948526;29;19964;-65
2023/04/17 16:55:17;;;;;;;;;;;;;;;15.25;49.23;98535.38;4950837;29;19928;-65
2023/04/17 16:57:43;;;;;;;;;;;;;;;14.79;50.25;98539.94;4952525;28;19922;-66
2023/04/17 17:00:08;;;;;;;;;;;;;;;14.84;50.89;98548.34;4953721;28;20028;-65
2023/04/17 17:02:34;;;;;;;;;;;;;;;14.74;50.92;98550.03;4948301;28;19934;-63
2023/04/17 17:04:59;;;;;;;;;;;;;;;14.78;50.70;98553.28;4950622;29;20364;-62
2023/04/17 17:07:25;;;;;;;;;;;;;;;14.77;50.20;98549.81;4952161;28;19922;-62
2023/04/17 17:09:50;;;;;;;;;;;;;;;14.46;50.46;98552.22;4953458;29;19918;-63
2023/04/17 17:12:15;;;;;;;;;;;;;;;14.33;51.16;98559.41;4951627;29;19925;-65
2023/04/17 17:14:40;;;;;;;;;;;;;;;14.24;51.19;98554.84;4950669;29;19918;-62
2023/04/17 17:17:05;;;;;;;;;;;;;;;14.18;51.62;98556.19;4951477;28;19926;-62
2023/04/17 17:19:31;;;;;;;;;;;;;;;13.95;51.90;98555.31;4953383;28;19918;-63
2023/04/17 17:21:56;;;;;;;;;;;;;;;13.92;52.60;98550.25;4956052;28;19933;-63
2023/04/17 17:24:21;;;;;;;;;;;;;;;13.86;52.90;98561.28;4955620;29;19979;-64
2023/04/17 17:26:46;;;;;;;;;;;;;;;13.82;52.77;98559.00;4956059;29;19961;-64
2023/04/17 17:29:12;;;;;;;;;;;;;;;13.66;53.33;98565.44;4956609;28;19958;-63
2023/04/17 17:31:37;;;;;;;;;;;;;;;13.35;53.92;98564.28;4955121;29;19956;-63
2023/04/17 17:34:02;;;;;;;;;;;;;;;13.21;54.47;98569.66;4954090;29;19922;-63
2023/04/17 17:36:28;;;;;;;;;;;;;;;13.10;54.88;98574.88;4956793;29;20434;-64
2023/04/17 17:38:56;;;;;;;;;;;;;;;13.04;55.79;98573.53;4955326;28;19918;-64
2023/04/17 17:41:24;;;;;;;;;;;;;;;12.96;55.95;98575.88;4954506;29;19984;-66
2023/04/17 17:43:49;;;;;;;;;;;;;;;12.94;55.24;98577.78;4952660;28;19925;-65
2023/04/17 17:46:15;;;;;;;;;;;;;;;12.68;56.68;98574.41;4956670;29;19915;-64
2023/04/17 17:48:40;;;;;;;;;;;;;;;12.56;55.64;98576.97;4954680;28;19926;-64